This is the latest recevied weather packets stored in our database for station/object SP9INZ-13. If no packets are shown the sender has not sent any weather packets the latest 10 day(s).
| Time | Temp. | Humidity | Pressure | Rain* | Wind** | Luminosity | Snow |
|---|---|---|---|---|---|---|---|
| 1777622745 | 13.89° C | 53% | 1032.4 hPa | - | - | - | - |
| 1777621787 | 15° C | 51% | 1032 hPa | - | - | - | - |
| 1777620830 | 14.44° C | 54% | 1032.3 hPa | - | - | - | - |
| 1777619871 | 13.89° C | 54% | 1032.2 hPa | - | - | - | - |
| 1777618913 | 13.33° C | 55% | 1032.8 hPa | - | - | - | - |
| 1777617955 | 12.78° C | 57% | 1032.7 hPa | - | - | - | - |
| 1777616997 | 12.78° C | 57% | 1032.6 hPa | - | - | - | - |
| 1777616039 | 12.22° C | 58% | 1032.8 hPa | - | - | - | - |
| 1777615081 | 11.11° C | 61% | 1033.2 hPa | - | - | - | - |
| 1777614123 | 10.56° C | 62% | 1033.1 hPa | - | - | - | - |
| 1777613166 | 10.56° C | 63% | 1033.1 hPa | - | - | - | - |
| 1777612216 | 10.56° C | 61% | 1033.3 hPa | - | - | - | - |
| 1777612207 | 10.56° C | 61% | 1033.3 hPa | - | - | - | - |
| 1777611249 | 11.11° C | 58% | 1033.8 hPa | - | - | - | - |
| 1777610291 | 11.11° C | 57% | 1033.8 hPa | - | - | - | - |
| 1777609334 | 10.56° C | 58% | 1034.1 hPa | - | - | - | - |
| 1777608376 | 10° C | 59% | 1034.1 hPa | - | - | - | - |
| 1777607417 | 10° C | 59% | 1034.3 hPa | - | - | - | - |
| 1777606460 | 10.56° C | 57% | 1034.1 hPa | - | - | - | - |
| 1777605502 | 10.56° C | 55% | 1034.5 hPa | - | - | - | - |
| 1777604545 | 11.67° C | 56% | 1034 hPa | - | - | - | - |
| 1777603585 | 11.11° C | 55% | 1034.5 hPa | - | - | - | - |
| 1777602627 | 12.22° C | 53% | 1034.3 hPa | - | - | - | - |
| 1777601669 | 15° C | 45% | 1033.3 hPa | - | - | - | - |
| 1777600711 | 12.78° C | 52% | 1033.9 hPa | - | - | - | - |
* Rain since midnight (hover to see other rain measurements)
** Current wind speed in m/s (hover to see current wind gust speed)